createdAt,value
2022-12-03T00:00:36.623Z,65.00
2022-12-03T00:03:03.473Z,78.85
2022-12-03T00:05:30.333Z,37.30
2022-12-03T00:07:57.418Z,47.40
2022-12-03T00:10:24.280Z,29.92
2022-12-03T00:12:51.041Z,33.22
2022-12-03T00:15:17.728Z,32.63
2022-12-03T00:17:44.452Z,30.40
2022-12-03T00:20:19.218Z,34.03
2022-12-03T00:22:46.008Z,36.33
2022-12-03T00:25:13.044Z,34.20
2022-12-03T00:27:39.756Z,31.52
2022-12-03T00:30:07.129Z,30.83
2022-12-03T00:32:33.988Z,29.23
2022-12-03T00:35:00.652Z,30.48
2022-12-03T00:37:27.569Z,34.17
2022-12-03T00:39:54.257Z,25.98
2022-12-03T00:42:20.958Z,28.45
2022-12-03T00:44:47.616Z,31.27
2022-12-03T00:47:14.376Z,34.88
2022-12-03T00:49:41.381Z,30.35
2022-12-03T00:52:08.119Z,29.65
2022-12-03T00:54:34.771Z,26.45
2022-12-03T00:57:01.426Z,29.48
2022-12-03T00:59:28.145Z,33.75
2022-12-03T01:01:54.923Z,29.90
2022-12-03T01:04:21.793Z,28.33
2022-12-03T01:06:48.471Z,31.75
2022-12-03T01:09:15.144Z,33.80
2022-12-03T01:11:41.885Z,28.88
2022-12-03T01:14:11.839Z,28.55
2022-12-03T01:16:38.807Z,28.20
2022-12-03T01:19:07.327Z,32.17
2022-12-03T01:21:34.563Z,30.77
2022-12-03T01:24:01.244Z,35.65
2022-12-03T01:26:28.079Z,30.05
2022-12-03T01:28:54.779Z,29.80
2022-12-03T01:31:40.018Z,30.80
2022-12-03T01:34:07.177Z,25.17
2022-12-03T01:36:34.415Z,28.67
2022-12-03T01:39:05.052Z,35.67
2022-12-03T01:41:33.148Z,30.00
2022-12-03T01:44:00.647Z,28.45
2022-12-03T01:46:41.642Z,31.75
2022-12-03T01:49:17.059Z,31.13
2022-12-03T01:51:43.923Z,33.67
2022-12-03T01:54:17.904Z,31.88
2022-12-03T01:56:45.128Z,30.48
2022-12-03T01:59:20.319Z,34.97
2022-12-03T02:01:47.069Z,32.35
2022-12-03T02:04:16.452Z,31.73
2022-12-03T02:06:44.725Z,30.00
2022-12-03T02:09:13.233Z,32.60
2022-12-03T02:11:43.614Z,32.05
2022-12-03T02:14:15.782Z,34.23
2022-12-03T02:16:43.316Z,36.58
2022-12-03T02:19:26.830Z,35.75
2022-12-03T02:22:14.186Z,33.38
2022-12-03T02:24:53.931Z,30.58
2022-12-03T02:27:22.143Z,34.25
2022-12-03T02:29:48.868Z,37.25
2022-12-03T02:32:15.592Z,39.70
2022-12-03T02:34:45.108Z,35.05
2022-12-03T02:37:15.451Z,33.22
2022-12-03T02:39:48.435Z,34.53
2022-12-03T02:42:33.755Z,37.15
2022-12-03T02:45:22.227Z,31.35
2022-12-03T02:47:52.923Z,32.17
2022-12-03T02:50:23.691Z,32.42
2022-12-03T02:52:54.260Z,35.03
2022-12-03T02:55:21.406Z,35.80
2022-12-03T02:57:50.392Z,34.25
2022-12-03T03:00:18.775Z,36.10
2022-12-03T03:02:46.956Z,36.10
2022-12-03T03:05:15.765Z,38.58
2022-12-03T03:07:42.806Z,35.83
2022-12-03T03:10:14.252Z,40.85
2022-12-03T03:12:41.265Z,36.95
2022-12-03T03:15:10.103Z,39.25
2022-12-03T03:17:37.296Z,36.33
2022-12-03T03:20:06.395Z,31.85
2022-12-03T03:22:34.388Z,38.47
2022-12-03T03:25:01.507Z,37.92
2022-12-03T03:27:28.972Z,36.45
2022-12-03T03:29:58.365Z,34.13
2022-12-03T03:32:29.020Z,35.97
2022-12-03T03:34:56.584Z,34.83
2022-12-03T03:37:24.666Z,39.38
2022-12-03T03:39:52.042Z,33.85
2022-12-03T03:42:18.888Z,29.88
2022-12-03T03:44:45.705Z,31.35
2022-12-03T03:47:13.147Z,31.83
2022-12-03T03:49:41.421Z,34.00
2022-12-03T03:52:11.656Z,36.45
2022-12-03T03:54:39.606Z,32.15
2022-12-03T03:57:06.358Z,32.53
2022-12-03T03:59:33.480Z,32.88
2022-12-03T04:02:00.142Z,34.55
2022-12-03T04:04:30.818Z,33.28
2022-12-03T04:06:57.485Z,31.45
2022-12-03T04:09:24.396Z,35.97
2022-12-03T04:12:09.562Z,36.33
2022-12-03T04:14:36.228Z,30.80
2022-12-03T04:17:03.018Z,29.00
2022-12-03T04:19:29.739Z,28.48
2022-12-03T04:22:14.908Z,33.20
2022-12-03T04:24:41.574Z,32.15
2022-12-03T04:27:27.129Z,30.85
2022-12-03T04:29:53.752Z,31.65
2022-12-03T04:32:40.637Z,31.17
2022-12-03T04:35:26.089Z,29.48
2022-12-03T04:37:52.847Z,30.17
2022-12-03T04:40:38.017Z,33.85
2022-12-03T04:43:04.664Z,25.98
2022-12-03T04:45:31.341Z,28.95
2022-12-03T04:47:58.030Z,28.52
2022-12-03T04:50:24.656Z,24.67
2022-12-03T04:52:51.331Z,31.00
2022-12-03T04:55:17.957Z,28.85
2022-12-03T04:57:44.620Z,24.13
2022-12-03T05:00:11.969Z,27.77
2022-12-03T05:02:38.628Z,24.77
2022-12-03T05:05:05.803Z,30.15
2022-12-03T05:07:32.500Z,26.40
2022-12-03T05:09:59.199Z,30.92
2022-12-03T05:12:25.852Z,32.45
2022-12-03T05:14:52.802Z,27.38
2022-12-03T05:17:19.620Z,29.80
2022-12-03T05:20:04.972Z,35.10
2022-12-03T05:22:31.609Z,34.50
2022-12-03T05:24:58.234Z,34.47
2022-12-03T05:27:25.636Z,61.92
2022-12-03T05:29:52.945Z,30.95
2022-12-03T05:32:20.042Z,40.80
2022-12-03T05:34:46.724Z,52.40
2022-12-03T05:37:13.346Z,40.20
2022-12-03T05:39:40.009Z,61.28
2022-12-03T05:42:25.143Z,68.10
2022-12-03T05:44:51.990Z,53.33
2022-12-03T05:47:18.844Z,68.50
2022-12-03T05:49:45.478Z,61.45
2022-12-03T05:52:12.117Z,58.95
2022-12-03T05:54:38.942Z,41.40
2022-12-03T05:57:05.625Z,42.72
2022-12-03T05:59:32.267Z,43.05
2022-12-03T06:01:58.906Z,43.35
2022-12-03T06:04:25.579Z,36.95
2022-12-03T06:06:52.201Z,39.38
2022-12-03T06:09:18.876Z,31.77
2022-12-03T06:11:45.731Z,34.72
2022-12-03T06:14:12.381Z,29.20
2022-12-03T06:16:39.101Z,33.25
2022-12-03T06:19:05.795Z,31.30
2022-12-03T06:21:32.443Z,30.27
2022-12-03T06:24:00.022Z,27.50
2022-12-03T06:26:26.800Z,21.48
2022-12-03T06:28:53.469Z,29.10
2022-12-03T06:31:20.244Z,25.80
2022-12-03T06:33:46.980Z,22.02
2022-12-03T06:36:13.617Z,24.92
2022-12-03T06:38:40.288Z,28.95
2022-12-03T06:41:06.934Z,24.73
2022-12-03T06:43:33.678Z,29.50
2022-12-03T06:46:00.381Z,26.75
2022-12-03T06:48:27.078Z,22.95
2022-12-03T06:50:53.771Z,26.23
2022-12-03T06:53:20.408Z,24.33
2022-12-03T06:55:47.032Z,30.40
2022-12-03T06:58:13.677Z,31.58
2022-12-03T07:00:40.296Z,26.80
2022-12-03T07:03:07.042Z,25.23
2022-12-03T07:05:33.758Z,21.27
2022-12-03T07:08:00.515Z,24.17
2022-12-03T07:10:27.293Z,24.65
2022-12-03T07:12:53.874Z,28.02
2022-12-03T07:15:20.719Z,31.92
2022-12-03T07:17:47.359Z,27.38
2022-12-03T07:20:16.343Z,30.52
2022-12-03T07:22:42.967Z,33.95
2022-12-03T07:25:09.828Z,36.90
2022-12-03T07:27:36.458Z,40.13
2022-12-03T07:30:03.532Z,31.92
2022-12-03T07:32:30.148Z,34.63
2022-12-03T07:34:56.831Z,24.77
2022-12-03T07:37:23.682Z,38.85
2022-12-03T07:39:52.403Z,35.35
2022-12-03T07:42:19.104Z,24.40
2022-12-03T07:44:45.760Z,26.42
2022-12-03T07:47:12.427Z,33.40
2022-12-03T07:49:39.112Z,29.25
2022-12-03T07:52:07.271Z,29.08
2022-12-03T07:54:33.991Z,26.48
2022-12-03T07:57:01.999Z,26.52
2022-12-03T07:59:29.772Z,26.10
2022-12-03T08:01:56.545Z,30.38
2022-12-03T08:04:23.348Z,27.83
2022-12-03T08:06:50.081Z,25.85
2022-12-03T08:09:16.837Z,28.17
2022-12-03T08:11:49.056Z,31.30
2022-12-03T08:14:18.621Z,28.20
2022-12-03T08:16:46.493Z,28.88
2022-12-03T08:19:17.947Z,33.17
2022-12-03T08:21:45.007Z,24.30
2022-12-03T08:24:18.984Z,35.50
2022-12-03T08:26:47.505Z,32.70
2022-12-03T08:29:18.055Z,23.50
2022-12-03T08:31:50.065Z,33.42
2022-12-03T08:34:18.740Z,24.92
2022-12-03T08:36:46.145Z,26.95
2022-12-03T08:39:29.219Z,31.33
2022-12-03T08:42:37.438Z,36.08
2022-12-03T08:45:29.066Z,22.33
2022-12-03T08:48:08.909Z,31.98
2022-12-03T08:50:41.227Z,28.75
2022-12-03T08:53:13.977Z,33.70
2022-12-03T08:55:46.685Z,50.83
2022-12-03T08:58:44.066Z,46.58
2022-12-03T09:01:10.711Z,63.03
2022-12-03T09:03:52.642Z,46.97
2022-12-03T09:06:19.334Z,58.47
2022-12-03T09:08:46.245Z,23.00
2022-12-03T09:11:13.609Z,37.70
2022-12-03T09:13:40.343Z,35.45
2022-12-03T09:16:07.554Z,47.33
2022-12-03T09:18:34.326Z,43.35
2022-12-03T09:21:00.976Z,41.88
2022-12-03T09:23:27.628Z,52.17
2022-12-03T09:25:54.284Z,28.00
2022-12-03T09:28:21.059Z,22.25
2022-12-03T09:30:47.692Z,45.45
2022-12-03T09:33:14.406Z,30.23
2022-12-03T09:35:41.058Z,44.65
2022-12-03T09:38:07.700Z,31.38
2022-12-03T09:40:34.753Z,43.53
2022-12-03T09:43:03.034Z,43.83
2022-12-03T09:45:29.711Z,45.65
2022-12-03T09:47:56.407Z,34.50
2022-12-03T09:50:26.705Z,42.45
2022-12-03T09:52:57.309Z,42.58
2022-12-03T09:55:27.247Z,36.83
2022-12-03T09:57:55.523Z,46.38
2022-12-03T10:00:29.153Z,53.70
2022-12-03T10:03:02.815Z,57.95
2022-12-03T10:05:29.629Z,88.07
2022-12-03T10:08:05.463Z,53.60
2022-12-03T10:10:33.604Z,59.53
2022-12-03T10:13:00.641Z,92.80
2022-12-03T10:15:27.716Z,75.93
2022-12-03T10:18:13.257Z,71.88
2022-12-03T10:20:39.913Z,112.80
2022-12-03T10:23:06.703Z,95.75
2022-12-03T10:25:49.073Z,75.50
2022-12-03T10:28:28.035Z,60.88
2022-12-03T10:30:55.663Z,107.85
2022-12-03T10:33:28.692Z,35.00
2022-12-03T10:35:55.379Z,48.13
2022-12-03T10:38:23.067Z,85.60
2022-12-03T10:40:50.283Z,70.25
2022-12-03T10:43:20.073Z,58.58
2022-12-03T10:45:52.353Z,47.78
2022-12-03T10:48:27.327Z,56.00
2022-12-03T10:51:04.299Z,64.07
2022-12-03T10:53:33.557Z,113.30
2022-12-03T10:56:03.916Z,49.25
2022-12-03T10:58:34.980Z,66.38
2022-12-03T11:01:03.865Z,39.70
2022-12-03T11:03:34.328Z,47.47
2022-12-03T11:06:03.014Z,89.95
2022-12-03T11:08:35.925Z,40.15
2022-12-03T11:11:16.159Z,75.07
2022-12-03T11:13:49.989Z,58.05
2022-12-03T11:16:39.181Z,64.22
2022-12-03T11:19:42.703Z,71.43
2022-12-03T11:22:12.114Z,69.15
2022-12-03T11:24:40.526Z,129.95
2022-12-03T11:27:17.618Z,63.30
2022-12-03T11:30:01.534Z,44.85
2022-12-03T11:32:48.114Z,54.95
2022-12-03T11:35:27.428Z,73.90
2022-12-03T11:37:54.406Z,23.58
2022-12-03T11:40:20.997Z,34.38
2022-12-03T11:42:48.955Z,23.42
2022-12-03T11:45:30.252Z,40.63
2022-12-03T11:47:59.856Z,49.17
2022-12-03T11:50:40.163Z,94.00
2022-12-03T11:53:13.180Z,82.00
2022-12-03T11:55:48.477Z,56.58
2022-12-03T11:58:26.795Z,163.00
2022-12-03T12:00:56.054Z,188.30
2022-12-03T12:03:29.325Z,111.90
2022-12-03T12:06:22.373Z,105.05
2022-12-03T12:08:50.894Z,72.35
2022-12-03T12:11:20.590Z,65.20
2022-12-03T12:13:47.181Z,52.65
2022-12-03T12:16:34.008Z,47.45
2022-12-03T12:19:35.663Z,43.70
2022-12-03T12:22:25.043Z,54.67
2022-12-03T12:24:57.703Z,33.83
2022-12-03T12:27:38.228Z,33.38
2022-12-03T12:30:14.245Z,61.97
2022-12-03T12:32:52.673Z,37.72
2022-12-03T12:35:28.527Z,16.73
2022-12-03T12:38:11.366Z,31.50
2022-12-03T12:40:40.472Z,34.95
2022-12-03T12:43:24.142Z,65.38
2022-12-03T12:45:55.022Z,37.45
2022-12-03T12:48:28.667Z,69.03
2022-12-03T12:51:06.170Z,38.75
2022-12-03T12:53:35.307Z,102.47
2022-12-03T12:56:11.398Z,95.13
2022-12-03T12:58:38.136Z,73.78
2022-12-03T13:01:11.259Z,111.55
2022-12-03T13:03:39.536Z,68.93
2022-12-03T13:06:06.496Z,90.38
2022-12-03T13:08:49.174Z,148.60
2022-12-03T13:13:48.405Z,126.35
2022-12-03T13:16:41.533Z,122.90
2022-12-03T13:19:23.376Z,57.40
2022-12-03T13:21:52.332Z,35.75
2022-12-03T13:24:40.615Z,49.05
2022-12-03T13:27:16.358Z,43.95
2022-12-03T13:29:44.090Z,84.03
2022-12-03T13:32:19.376Z,58.65
2022-12-03T13:34:46.815Z,80.82
2022-12-03T13:37:22.197Z,56.53
2022-12-03T13:39:51.296Z,41.28
2022-12-03T13:42:46.424Z,51.47
2022-12-03T13:45:16.149Z,55.53
2022-12-03T13:48:04.327Z,58.58
2022-12-03T13:50:45.078Z,47.22
2022-12-03T13:53:11.661Z,77.93
2022-12-03T13:55:47.403Z,32.00
2022-12-03T13:58:14.100Z,44.47
2022-12-03T14:00:40.834Z,32.97
2022-12-03T14:03:07.490Z,39.05
2022-12-03T14:05:34.213Z,48.78
2022-12-03T14:08:04.811Z,29.52
2022-12-03T14:10:32.385Z,94.38
2022-12-03T14:12:59.120Z,82.35
2022-12-03T14:15:26.491Z,78.50
2022-12-03T14:17:53.703Z,87.57
2022-12-03T14:20:20.805Z,83.15
2022-12-03T14:22:47.545Z,59.90
2022-12-03T14:25:15.006Z,47.88
2022-12-03T14:27:41.657Z,39.65
2022-12-03T14:30:09.255Z,48.00
2022-12-03T14:32:35.936Z,68.13
2022-12-03T14:35:08.136Z,47.50
2022-12-03T14:37:36.510Z,46.67
2022-12-03T14:40:03.923Z,33.40
2022-12-03T14:42:30.591Z,56.30
2022-12-03T14:44:57.565Z,86.90
2022-12-03T14:47:24.290Z,61.60
2022-12-03T14:49:52.282Z,47.33
2022-12-03T14:52:19.576Z,51.00
2022-12-03T14:54:46.281Z,38.38
2022-12-03T14:57:14.395Z,29.10
2022-12-03T14:59:42.734Z,52.92
2022-12-03T15:02:10.853Z,93.13
2022-12-03T15:04:38.183Z,40.72
2022-12-03T15:07:06.110Z,78.18
2022-12-03T15:09:32.822Z,56.28
2022-12-03T15:12:00.089Z,58.45
2022-12-03T15:14:27.134Z,50.13
2022-12-03T15:16:53.880Z,67.88
2022-12-03T15:19:20.676Z,68.20
2022-12-03T15:21:47.348Z,47.90
2022-12-03T15:24:14.050Z,93.82
2022-12-03T15:26:40.685Z,51.85
2022-12-03T15:29:07.343Z,145.98
2022-12-03T15:31:34.201Z,86.07
2022-12-03T15:34:00.967Z,73.70
2022-12-03T15:36:27.624Z,69.25
2022-12-03T15:38:54.246Z,80.10
2022-12-03T15:41:30.164Z,76.32
2022-12-03T15:43:59.975Z,97.13
2022-12-03T15:46:28.006Z,135.02
2022-12-03T15:48:55.475Z,87.72
2022-12-03T15:51:22.114Z,118.55
2022-12-03T15:53:48.808Z,101.95
2022-12-03T15:56:15.465Z,35.17
2022-12-03T15:58:42.142Z,62.17
2022-12-03T16:01:09.406Z,79.22
2022-12-03T16:03:36.806Z,86.03
2022-12-03T16:06:03.627Z,77.18
2022-12-03T16:08:30.429Z,105.32
2022-12-03T16:10:57.240Z,164.20
2022-12-03T16:13:23.951Z,146.90
2022-12-03T16:15:50.636Z,164.02
2022-12-03T16:18:17.751Z,120.72
2022-12-03T16:20:44.501Z,79.30
2022-12-03T16:23:11.165Z,195.18
2022-12-03T16:25:37.821Z,83.35
2022-12-03T16:28:06.077Z,119.10
2022-12-03T16:30:32.831Z,169.52
2022-12-03T16:32:59.513Z,121.50
2022-12-03T16:35:26.176Z,199.00
2022-12-03T16:37:52.887Z,129.15
2022-12-03T16:40:19.622Z,138.10
2022-12-03T16:42:46.235Z,124.82
2022-12-03T16:45:21.805Z,87.72
2022-12-03T16:47:49.575Z,65.78
2022-12-03T16:50:24.413Z,100.10
2022-12-03T16:52:54.473Z,66.38
2022-12-03T16:55:21.160Z,63.25
2022-12-03T16:57:47.875Z,50.45
2022-12-03T17:00:15.181Z,45.92
2022-12-03T17:02:41.904Z,63.00
2022-12-03T17:05:08.792Z,92.07
2022-12-03T17:07:35.456Z,82.93
2022-12-03T17:10:02.185Z,89.20
2022-12-03T17:12:42.309Z,85.32
2022-12-03T17:15:15.529Z,43.58
2022-12-03T17:17:42.217Z,48.75
2022-12-03T17:20:12.505Z,90.30
2022-12-03T17:22:39.215Z,68.80
2022-12-03T17:25:06.077Z,62.17
2022-12-03T17:27:32.667Z,108.90
2022-12-03T17:29:59.391Z,95.07
2022-12-03T17:32:26.066Z,88.20
2022-12-03T17:34:52.734Z,126.47
2022-12-03T17:37:19.412Z,100.82
2022-12-03T17:39:46.068Z,113.65
2022-12-03T17:42:12.688Z,101.80
2022-12-03T17:44:39.354Z,68.18
2022-12-03T17:47:06.091Z,155.30
2022-12-03T17:49:32.733Z,109.15
2022-12-03T17:52:00.100Z,93.75
2022-12-03T17:54:43.216Z,140.38
2022-12-03T17:57:13.418Z,85.10
2022-12-03T17:59:40.112Z,173.57
2022-12-03T18:02:07.359Z,54.58
2022-12-03T18:04:34.144Z,118.07
2022-12-03T18:07:02.491Z,123.78
2022-12-03T18:09:29.406Z,152.88
2022-12-03T18:11:56.156Z,116.03
2022-12-03T18:14:22.853Z,88.80
2022-12-03T18:16:49.471Z,149.98
2022-12-03T18:19:16.453Z,139.50
2022-12-03T18:21:43.176Z,92.70
2022-12-03T18:24:10.201Z,107.85
2022-12-03T18:26:36.894Z,77.35
2022-12-03T18:29:03.704Z,48.30
2022-12-03T18:31:30.513Z,115.85
2022-12-03T18:33:57.203Z,113.20
2022-12-03T18:36:26.389Z,166.55
2022-12-03T18:38:55.423Z,89.45
2022-12-03T18:41:24.432Z,135.45
2022-12-03T18:43:51.408Z,67.90
2022-12-03T18:46:45.000Z,105.25
2022-12-03T18:49:05.693Z,60.08
2022-12-03T18:51:32.698Z,84.90
2022-12-03T18:53:59.360Z,98.82
2022-12-03T18:56:26.083Z,140.77
2022-12-03T18:58:52.777Z,70.20
2022-12-03T19:01:22.069Z,42.67
2022-12-03T19:03:49.456Z,97.07
2022-12-03T19:06:20.787Z,58.83
2022-12-03T19:08:49.579Z,110.95
2022-12-03T19:11:16.287Z,91.13
2022-12-03T19:13:43.081Z,134.30
2022-12-03T19:16:12.052Z,127.03
2022-12-03T19:18:39.405Z,123.07
2022-12-03T19:21:11.079Z,79.65
2022-12-03T19:23:37.824Z,115.10
2022-12-03T19:26:07.036Z,102.70
2022-12-03T19:28:34.559Z,115.70
2022-12-03T19:31:28.987Z,130.38
2022-12-03T19:33:55.724Z,77.93
2022-12-03T19:36:25.164Z,99.78
2022-12-03T19:38:56.918Z,80.50
2022-12-03T19:41:26.757Z,62.00
2022-12-03T19:43:55.391Z,86.25
2022-12-03T19:46:25.510Z,52.55
2022-12-03T19:48:54.179Z,86.65
2022-12-03T19:51:34.223Z,120.82
2022-12-03T19:54:02.369Z,69.38
2022-12-03T19:56:30.513Z,95.57
2022-12-03T19:58:57.553Z,97.10
2022-12-03T20:01:27.773Z,85.45
2022-12-03T20:03:56.768Z,103.30
2022-12-03T20:06:26.173Z,108.15
2022-12-03T20:09:00.694Z,152.75
2022-12-03T20:11:30.381Z,111.75
2022-12-03T20:14:00.340Z,81.93
2022-12-03T20:16:28.100Z,58.20
2022-12-03T20:19:06.864Z,117.30
2022-12-03T20:21:36.049Z,124.85
2022-12-03T20:24:03.361Z,105.45
2022-12-03T20:26:30.086Z,159.85
2022-12-03T20:28:58.142Z,126.72
2022-12-03T20:31:27.987Z,102.07
2022-12-03T20:33:58.257Z,114.35
2022-12-03T20:36:25.995Z,122.53
2022-12-03T20:38:57.403Z,181.43
2022-12-03T20:41:24.643Z,199.30
2022-12-03T20:43:53.588Z,158.30
2022-12-03T20:46:22.986Z,155.60
2022-12-03T20:48:49.695Z,176.02
2022-12-03T20:51:18.836Z,128.50
2022-12-03T20:53:46.354Z,153.13
2022-12-03T20:56:20.338Z,181.65
2022-12-03T20:58:50.961Z,110.55
2022-12-03T21:01:23.682Z,200.48
2022-12-03T21:03:51.600Z,153.57
2022-12-03T21:06:18.720Z,185.93
2022-12-03T21:08:45.513Z,168.38
2022-12-03T21:11:18.364Z,153.60
2022-12-03T21:13:45.949Z,48.55
2022-12-03T21:16:15.698Z,69.15
2022-12-03T21:18:43.260Z,78.20
2022-12-03T21:21:15.002Z,60.88
2022-12-03T21:23:42.313Z,54.72
2022-12-03T21:26:11.979Z,53.00
2022-12-03T21:28:40.301Z,56.40
2022-12-03T21:31:10.286Z,87.82
2022-12-03T21:33:37.520Z,69.78
2022-12-03T21:36:05.315Z,63.28
2022-12-03T21:38:34.399Z,54.55
2022-12-03T21:41:01.836Z,71.70
2022-12-03T21:43:29.508Z,36.25
2022-12-03T21:45:56.241Z,72.22
2022-12-03T21:48:23.072Z,80.32
2022-12-03T21:51:05.451Z,60.70
2022-12-03T21:53:33.478Z,32.97
2022-12-03T21:56:03.674Z,74.43
2022-12-03T21:58:30.305Z,81.43
2022-12-03T22:00:57.038Z,85.45
2022-12-03T22:03:23.709Z,58.15
2022-12-03T22:05:50.557Z,60.28
2022-12-03T22:08:18.374Z,59.97
2022-12-03T22:10:45.239Z,79.22
2022-12-03T22:13:11.941Z,88.63
2022-12-03T22:15:40.117Z,88.28
2022-12-03T22:18:06.873Z,129.60
2022-12-03T22:20:33.540Z,138.57
2022-12-03T22:23:00.260Z,95.28
2022-12-03T22:25:26.920Z,65.45
2022-12-03T22:27:53.687Z,110.43
2022-12-03T22:30:20.382Z,98.18
2022-12-03T22:32:47.025Z,79.60
2022-12-03T22:35:13.800Z,75.78
2022-12-03T22:37:40.433Z,130.48
2022-12-03T22:40:07.630Z,216.25
2022-12-03T22:42:34.275Z,96.93
2022-12-03T22:45:00.914Z,163.77
2022-12-03T22:47:27.552Z,137.25
2022-12-03T22:49:54.407Z,152.23
2022-12-03T22:52:21.218Z,222.88
2022-12-03T22:54:47.856Z,186.40
2022-12-03T22:57:14.569Z,213.70
2022-12-03T22:59:41.226Z,142.55
2022-12-03T23:02:07.883Z,152.05
2022-12-03T23:04:34.649Z,212.27
2022-12-03T23:07:01.285Z,165.25
2022-12-03T23:09:27.940Z,122.90
2022-12-03T23:11:54.589Z,172.45
2022-12-03T23:14:21.806Z,187.20
2022-12-03T23:16:48.482Z,99.93
2022-12-03T23:19:15.375Z,79.60
2022-12-03T23:21:42.104Z,87.45
2022-12-03T23:24:08.772Z,59.88
2022-12-03T23:26:37.403Z,53.17
2022-12-03T23:29:06.097Z,154.40
2022-12-03T23:31:33.659Z,70.65
2022-12-03T23:34:01.207Z,124.68
2022-12-03T23:36:31.520Z,158.73
2022-12-03T23:38:58.213Z,118.85
2022-12-03T23:41:25.067Z,162.43
2022-12-03T23:43:52.100Z,123.15
2022-12-03T23:46:21.992Z,134.65
2022-12-03T23:48:49.612Z,50.92
2022-12-03T23:51:18.707Z,60.25
2022-12-03T23:53:46.107Z,87.55
2022-12-03T23:56:18.445Z,121.18
2022-12-03T23:58:45.712Z,76.05
